Iberica Hav — C6YI3 — position and weather

sailwx.info

Track history (hours):
 
Tides and Currents Weather Stations Pressure Air Temp Water Temp Dewpoint Dewpoint Depression Visibility Wind Speed Wind Dir Waves Ship Positions

Iberica Hav

Last reported at 2017-Apr-29 12:41 UTC. Time now 2017-Apr-29 13:38 UTC.
Position N 54°35' E 010°41'.

Length 88 m; draft 3.9 m.

Type: Cargo ship. MMSI: 311034400.

Date/timePositionNaut miles runAvg speedWind from/ knotsBaromVisibWave heightAir tempDewpointWater temp
2017-Apr-29 12:41N 54°35' E 010°41'2 8.5
2017-Apr-29 12:29N 54°35' E 010°44'4 8.3
2017-Apr-29 12:00N 54°35' E 010°51'4 8.5
2017-Apr-29 11:30N 54°36' E 010°58'4 9.0
2017-Apr-29 11:00N 54°36' E 011°06'4 8.8
2017-Apr-29 10:30N 54°35' E 011°13'5 9.3
2017-Apr-29 10:00N 54°33' E 011°21'5 9.2
2017-Apr-29 09:30N 54°32' E 011°28'5 9.2
2017-Apr-29 09:00N 54°30' E 011°35'5 9.0
2017-Apr-29 08:30N 54°28' E 011°42'15 8.7
2017-Apr-29 06:47N 54°28' E 012°08'2 8.2
2017-Apr-29 06:30N 54°29' E 012°11'4 8.3
2017-Apr-29 06:00N 54°32' E 012°16'4 8.6
2017-Apr-29 05:30N 54°34' E 012°22'4 8.4
2017-Apr-29 05:00N 54°37' E 012°28'85 6.9
2017-Apr-28 16:39N 53°46' E 014°24'1 8.5
2017-Apr-28 16:30N 53°45' E 014°25'4 8.5
2017-Apr-28 16:00N 53°41' E 014°30'4 8.6
2017-Apr-28 15:30N 53°38' E 014°34'4 8.6
2017-Apr-28 15:00N 53°34' E 014°36'8 7.9
2017-Apr-28 14:00N 53°26' E 014°36'2 3.7
2017-Apr-28 13:30N 53°24' E 014°37'0 0.0
2017-Apr-28 13:00N 53°24' E 014°37'0 0.0
2017-Apr-28 12:30N 53°24' E 014°37'0 0.0
2017-Apr-28 11:57N 53°24' E 014°37'0 0.0
2017-Apr-28 11:27N 53°24' E 014°37'0 0.0
2017-Apr-28 10:57N 53°24' E 014°37'0 0.0
2017-Apr-28 10:30N 53°24' E 014°37'0 0.0
2017-Apr-28 09:57N 53°24' E 014°37'0 0.0
2017-Apr-28 09:27N 53°24' E 014°37'0 0.0
2017-Apr-28 08:51N 53°24' E 014°37'0 0.0
2017-Apr-28 08:30N 53°24' E 014°37'0 0.0
2017-Apr-28 08:00N 53°24' E 014°37'0 0.0
2017-Apr-28 07:24N 53°24' E 014°37'0 0.0
2017-Apr-28 07:00N 53°24' E 014°37'0 0.0
2017-Apr-28 06:30N 53°24' E 014°37'0 0.0
2017-Apr-28 05:51N 53°24' E 014°37'0 0.0
2017-Apr-28 05:30N 53°24' E 014°37'0 0.0
2017-Apr-28 05:00N 53°24' E 014°37'0 0.0
2017-Apr-28 04:30N 53°24' E 014°37'0 0.0
2017-Apr-28 02:03N 53°24' E 014°37'0 0.0
2017-Apr-27 22:09N 53°24' E 014°37'0 0.0
2017-Apr-27 22:00N 53°24' E 014°37'0 0.0
2017-Apr-27 21:30N 53°24' E 014°37'0 0.0
2017-Apr-27 20:57N 53°24' E 014°37'0 0.0
2017-Apr-27 20:24N 53°24' E 014°37'0 0.0
2017-Apr-27 19:54N 53°24' E 014°37'0 0.0
2017-Apr-27 19:27N 53°24' E 014°37'0 0.0
2017-Apr-27 18:45N 53°24' E 014°37'0 0.0
2017-Apr-27 18:30N 53°24' E 014°37'0 0.0
2017-Apr-27 17:48N 53°24' E 014°37'0 0.0
2017-Apr-27 17:24N 53°24' E 014°37'0 0.0
2017-Apr-27 17:00N 53°24' E 014°37'0 0.0
2017-Apr-27 16:30N 53°24' E 014°37'0 0.0
2017-Apr-27 15:48N 53°24' E 014°37'0 0.0
2017-Apr-27 14:03N 53°24' E 014°37'0 0.0
2017-Apr-27 12:51N 53°24' E 014°37'0 0.0
2017-Apr-27 12:30N 53°24' E 014°37'0 0.0
2017-Apr-27 10:00N 53°24' E 014°37'0 0.0
2017-Apr-27 09:18N 53°24' E 014°37'0 0.0
2017-Apr-27 08:48N 53°24' E 014°37'0 0.0
2017-Apr-27 07:36N 53°24' E 014°37'0 0.0
2017-Apr-27 07:21N 53°24' E 014°37'0 0.0
2017-Apr-27 06:27N 53°24' E 014°37'0 0.0
2017-Apr-27 06:00N 53°24' E 014°37'0 0.0
2017-Apr-27 05:27N 53°24' E 014°37'0 0.0
2017-Apr-27 04:45N 53°24' E 014°37'0 0.0
2017-Apr-27 04:27N 53°24' E 014°37'0 0.0
2017-Apr-27 04:00N 53°24' E 014°37'0 0.0
2017-Apr-27 03:30N 53°24' E 014°37'1 2.8
2017-Apr-27 03:00N 53°26' E 014°36'4 8.7
2017-Apr-27 02:30N 53°30' E 014°37'5 8.4
2017-Apr-27 01:56N 53°35' E 014°36'4 9.1
2017-Apr-27 01:30N 53°38' E 014°34'5 9.3
2017-Apr-27 01:00N 53°42' E 014°29'100 8.7
2017-Apr-26 13:33N 55°02' E 012°46'1 9.1
2017-Apr-26 13:30N 55°02' E 012°45'6 9.5
2017-Apr-26 12:50N 55°08' E 012°41'4 9.4
2017-Apr-26 12:25N 55°11' E 012°39'4 9.3
2017-Apr-26 12:00N 55°15' E 012°38'5 9.3
2017-Apr-26 11:30N 55°20' E 012°38'5 9.9
2017-Apr-26 11:00N 55°25' E 012°39'5 9.4
2017-Apr-26 10:30N 55°29' E 012°41'5 9.2
2017-Apr-26 10:00N 55°34' E 012°42'5 9.1
2017-Apr-26 09:30N 55°38' E 012°41'5 9.3
2017-Apr-26 09:00N 55°43' E 012°41'5 9.5
2017-Apr-26 08:30N 55°48' E 012°42'5 9.4
2017-Apr-26 08:00N 55°52' E 012°40'5 9.2
2017-Apr-26 07:30N 55°57' E 012°38'5 9.3
2017-Apr-26 07:00N 56°02' E 012°38'4 8.7
2017-Apr-26 06:30N 56°05' E 012°34'5 9.6
2017-Apr-26 06:00N 56°08' E 012°27'81 9.1
2017-Apr-25 21:04N 57°23' E 011°28'1 9.2
2017-Apr-25 21:00N 57°23' E 011°27'4 8.9
2017-Apr-25 20:30N 57°28' E 011°24'4 8.7
2017-Apr-25 20:00N 57°32' E 011°24'4 9.0
2017-Apr-25 19:30N 57°37' E 011°24'5 9.3
2017-Apr-25 19:00N 57°41' E 011°25'5 9.3
2017-Apr-25 18:30N 57°46' E 011°26'5 9.3
2017-Apr-25 18:00N 57°50' E 011°28'5 9.4
2017-Apr-25 17:30N 57°54' E 011°33'5 9.8
2017-Apr-25 16:57N 57°57' E 011°42'510.1
2017-Apr-25 16:30N 58°01' E 011°46'5 9.5
2017-Apr-25 16:00N 58°05' E 011°48'5 9.1
2017-Apr-25 15:25N 58°10' E 011°51'10 1.5
2017-Apr-25 08:19N 58°21' E 011°53'0 0.0
2017-Apr-25 07:55N 58°21' E 011°53'0 0.0
2017-Apr-25 07:25N 58°21' E 011°53'8 0.2
2017-Apr-23 15:01N 58°13' E 011°51'2 8.4
2017-Apr-23 14:48N 58°11' E 011°51'6 7.8
2017-Apr-23 14:00N 58°05' E 011°48'4 7.7
2017-Apr-23 13:29N 58°01' E 011°47'4 8.2
2017-Apr-23 13:00N 57°58' E 011°43'4 7.7
2017-Apr-23 12:29N 57°55' E 011°38'4 7.8
2017-Apr-23 12:00N 57°54' E 011°31'4 7.2
2017-Apr-23 11:30N 57°51' E 011°27'4 7.6
2017-Apr-23 10:56N 57°50' E 011°19'5 8.0
2017-Apr-23 10:19N 57°49' E 011°10'3 8.2
2017-Apr-23 10:00N 57°49' E 011°05'4 8.6
2017-Apr-23 09:30N 57°48' E 010°57'4 8.4
2017-Apr-23 09:00N 57°47' E 010°50'5 8.1
2017-Apr-23 08:25N 57°47' E 010°41'4 8.3
2017-Apr-23 07:59N 57°46' E 010°34'20 8.2
2017-Apr-23 05:37N 57°38' E 010°00'1 8.7
2017-Apr-23 05:30N 57°38' E 009°59'6 8.4
2017-Apr-23 04:51N 57°35' E 009°50'3 8.2
2017-Apr-23 04:29N 57°33' E 009°46'4 8.2
2017-Apr-23 03:59N 57°30' E 009°40'4 8.1
2017-Apr-23 03:29N 57°28' E 009°34'4 7.9
2017-Apr-23 03:00N 57°26' E 009°28'4 7.8
2017-Apr-23 02:30N 57°24' E 009°21'4 7.7
2017-Apr-23 02:00N 57°22' E 009°15'4 7.6
2017-Apr-23 01:29N 57°20' E 009°09'271 6.1
2017-Apr-21 05:14N 53°34' E 004°47'2 8.1
2017-Apr-21 04:57N 53°32' E 004°46'4 8.0
2017-Apr-21 04:30N 53°29' E 004°44'4 8.1
2017-Apr-21 04:00N 53°25' E 004°41'4 8.2
2017-Apr-21 03:28N 53°21' E 004°38'27 8.7
2017-Apr-21 00:20N 52°56' E 004°18'3 9.1
2017-Apr-21 00:00N 52°54' E 004°16'8 9.3
2017-Apr-20 23:06N 52°47' E 004°08'2 9.2
2017-Apr-20 22:55N 52°46' E 004°06'4 9.2
2017-Apr-20 22:30N 52°43' E 004°02'93 8.2
2017-Apr-20 11:12N 51°33' E 002°22'2 8.4
2017-Apr-20 10:59N 51°32' E 002°20'4 8.5
2017-Apr-20 10:30N 51°29' E 002°16'5 8.7
2017-Apr-20 09:59N 51°25' E 002°12'4 9.0
2017-Apr-20 09:30N 51°21' E 002°09'4 9.0
2017-Apr-20 09:00N 51°17' E 002°06'4 9.1
2017-Apr-20 08:30N 51°14' E 002°02'5 9.4
2017-Apr-20 08:00N 51°11' E 001°56'5 9.5
2017-Apr-20 07:30N 51°08' E 001°50'5 9.8
2017-Apr-20 07:00N 51°04' E 001°44'510.1
2017-Apr-20 06:30N 51°01' E 001°39'910.7
2017-Apr-20 05:42N 50°54' E 001°29'  
Track history (hours):
 
Tides and Currents Weather Stations Pressure Air Temp Water Temp Dewpoint Dewpoint Depression Visibility Wind Speed Wind Dir Waves Ship Positions

Iberica Hav

Last reported at 2017-Apr-29 12:41 UTC. Time now 2017-Apr-29 13:38 UTC.
Position N 54°35' E 010°41'.

Length 88 m; draft 3.9 m.

Type: Cargo ship. MMSI: 311034400.

Date/timePositionNaut miles runAvg speedWind from/ knotsBaromVisibWave heightAir tempDewpointWater temp
2017-Apr-29 12:41N 54°35' E 010°41'2 8.5
2017-Apr-29 12:29N 54°35' E 010°44'4 8.3
2017-Apr-29 12:00N 54°35' E 010°51'4 8.5
2017-Apr-29 11:30N 54°36' E 010°58'4 9.0
2017-Apr-29 11:00N 54°36' E 011°06'4 8.8
2017-Apr-29 10:30N 54°35' E 011°13'5 9.3
2017-Apr-29 10:00N 54°33' E 011°21'5 9.2
2017-Apr-29 09:30N 54°32' E 011°28'5 9.2
2017-Apr-29 09:00N 54°30' E 011°35'5 9.0
2017-Apr-29 08:30N 54°28' E 011°42'15 8.7
2017-Apr-29 06:47N 54°28' E 012°08'2 8.2
2017-Apr-29 06:30N 54°29' E 012°11'4 8.3
2017-Apr-29 06:00N 54°32' E 012°16'4 8.6
2017-Apr-29 05:30N 54°34' E 012°22'4 8.4
2017-Apr-29 05:00N 54°37' E 012°28'85 6.9
2017-Apr-28 16:39N 53°46' E 014°24'1 8.5
2017-Apr-28 16:30N 53°45' E 014°25'4 8.5
2017-Apr-28 16:00N 53°41' E 014°30'4 8.6
2017-Apr-28 15:30N 53°38' E 014°34'4 8.6
2017-Apr-28 15:00N 53°34' E 014°36'8 7.9
2017-Apr-28 14:00N 53°26' E 014°36'2 3.7
2017-Apr-28 13:30N 53°24' E 014°37'0 0.0
2017-Apr-28 13:00N 53°24' E 014°37'0 0.0
2017-Apr-28 12:30N 53°24' E 014°37'0 0.0
2017-Apr-28 11:57N 53°24' E 014°37'0 0.0
2017-Apr-28 11:27N 53°24' E 014°37'0 0.0
2017-Apr-28 10:57N 53°24' E 014°37'0 0.0
2017-Apr-28 10:30N 53°24' E 014°37'0 0.0
2017-Apr-28 09:57N 53°24' E 014°37'0 0.0
2017-Apr-28 09:27N 53°24' E 014°37'0 0.0
2017-Apr-28 08:51N 53°24' E 014°37'0 0.0
2017-Apr-28 08:30N 53°24' E 014°37'0 0.0
2017-Apr-28 08:00N 53°24' E 014°37'0 0.0
2017-Apr-28 07:24N 53°24' E 014°37'0 0.0
2017-Apr-28 07:00N 53°24' E 014°37'0 0.0
2017-Apr-28 06:30N 53°24' E 014°37'0 0.0
2017-Apr-28 05:51N 53°24' E 014°37'0 0.0
2017-Apr-28 05:30N 53°24' E 014°37'0 0.0
2017-Apr-28 05:00N 53°24' E 014°37'0 0.0
2017-Apr-28 04:30N 53°24' E 014°37'0 0.0
2017-Apr-28 02:03N 53°24' E 014°37'0 0.0
2017-Apr-27 22:09N 53°24' E 014°37'0 0.0
2017-Apr-27 22:00N 53°24' E 014°37'0 0.0
2017-Apr-27 21:30N 53°24' E 014°37'0 0.0
2017-Apr-27 20:57N 53°24' E 014°37'0 0.0
2017-Apr-27 20:24N 53°24' E 014°37'0 0.0
2017-Apr-27 19:54N 53°24' E 014°37'0 0.0
2017-Apr-27 19:27N 53°24' E 014°37'0 0.0
2017-Apr-27 18:45N 53°24' E 014°37'0 0.0
2017-Apr-27 18:30N 53°24' E 014°37'0 0.0
2017-Apr-27 17:48N 53°24' E 014°37'0 0.0
2017-Apr-27 17:24N 53°24' E 014°37'0 0.0
2017-Apr-27 17:00N 53°24' E 014°37'0 0.0
2017-Apr-27 16:30N 53°24' E 014°37'0 0.0
2017-Apr-27 15:48N 53°24' E 014°37'0 0.0
2017-Apr-27 14:03N 53°24' E 014°37'0 0.0
2017-Apr-27 12:51N 53°24' E 014°37'0 0.0
2017-Apr-27 12:30N 53°24' E 014°37'0 0.0
2017-Apr-27 10:00N 53°24' E 014°37'0 0.0
2017-Apr-27 09:18N 53°24' E 014°37'0 0.0
2017-Apr-27 08:48N 53°24' E 014°37'0 0.0
2017-Apr-27 07:36N 53°24' E 014°37'0 0.0
2017-Apr-27 07:21N 53°24' E 014°37'0 0.0
2017-Apr-27 06:27N 53°24' E 014°37'0 0.0
2017-Apr-27 06:00N 53°24' E 014°37'0 0.0
2017-Apr-27 05:27N 53°24' E 014°37'0 0.0
2017-Apr-27 04:45N 53°24' E 014°37'0 0.0
2017-Apr-27 04:27N 53°24' E 014°37'0 0.0
2017-Apr-27 04:00N 53°24' E 014°37'0 0.0
2017-Apr-27 03:30N 53°24' E 014°37'1 2.8
2017-Apr-27 03:00N 53°26' E 014°36'4 8.7
2017-Apr-27 02:30N 53°30' E 014°37'5 8.4
2017-Apr-27 01:56N 53°35' E 014°36'4 9.1
2017-Apr-27 01:30N 53°38' E 014°34'5 9.3
2017-Apr-27 01:00N 53°42' E 014°29'100 8.7
2017-Apr-26 13:33N 55°02' E 012°46'1 9.1
2017-Apr-26 13:30N 55°02' E 012°45'6 9.5
2017-Apr-26 12:50N 55°08' E 012°41'4 9.4
2017-Apr-26 12:25N 55°11' E 012°39'4 9.3
2017-Apr-26 12:00N 55°15' E 012°38'5 9.3
2017-Apr-26 11:30N 55°20' E 012°38'5 9.9
2017-Apr-26 11:00N 55°25' E 012°39'5 9.4
2017-Apr-26 10:30N 55°29' E 012°41'5 9.2
2017-Apr-26 10:00N 55°34' E 012°42'5 9.1
2017-Apr-26 09:30N 55°38' E 012°41'5 9.3
2017-Apr-26 09:00N 55°43' E 012°41'5 9.5
2017-Apr-26 08:30N 55°48' E 012°42'5 9.4
2017-Apr-26 08:00N 55°52' E 012°40'5 9.2
2017-Apr-26 07:30N 55°57' E 012°38'5 9.3
2017-Apr-26 07:00N 56°02' E 012°38'4 8.7
2017-Apr-26 06:30N 56°05' E 012°34'5 9.6
2017-Apr-26 06:00N 56°08' E 012°27'81 9.1
2017-Apr-25 21:04N 57°23' E 011°28'1 9.2
2017-Apr-25 21:00N 57°23' E 011°27'4 8.9
2017-Apr-25 20:30N 57°28' E 011°24'4 8.7
2017-Apr-25 20:00N 57°32' E 011°24'4 9.0
2017-Apr-25 19:30N 57°37' E 011°24'5 9.3
2017-Apr-25 19:00N 57°41' E 011°25'5 9.3
2017-Apr-25 18:30N 57°46' E 011°26'5 9.3
2017-Apr-25 18:00N 57°50' E 011°28'5 9.4
2017-Apr-25 17:30N 57°54' E 011°33'5 9.8
2017-Apr-25 16:57N 57°57' E 011°42'510.1
2017-Apr-25 16:30N 58°01' E 011°46'5 9.5
2017-Apr-25 16:00N 58°05' E 011°48'5 9.1
2017-Apr-25 15:25N 58°10' E 011°51'10 1.5
2017-Apr-25 08:19N 58°21' E 011°53'0 0.0
2017-Apr-25 07:55N 58°21' E 011°53'0 0.0
2017-Apr-25 07:25N 58°21' E 011°53'8 0.2
2017-Apr-23 15:01N 58°13' E 011°51'2 8.4
2017-Apr-23 14:48N 58°11' E 011°51'6 7.8
2017-Apr-23 14:00N 58°05' E 011°48'4 7.7
2017-Apr-23 13:29N 58°01' E 011°47'4 8.2
2017-Apr-23 13:00N 57°58' E 011°43'4 7.7
2017-Apr-23 12:29N 57°55' E 011°38'4 7.8
2017-Apr-23 12:00N 57°54' E 011°31'4 7.2
2017-Apr-23 11:30N 57°51' E 011°27'4 7.6
2017-Apr-23 10:56N 57°50' E 011°19'5 8.0
2017-Apr-23 10:19N 57°49' E 011°10'3 8.2
2017-Apr-23 10:00N 57°49' E 011°05'4 8.6
2017-Apr-23 09:30N 57°48' E 010°57'4 8.4
2017-Apr-23 09:00N 57°47' E 010°50'5 8.1
2017-Apr-23 08:25N 57°47' E 010°41'4 8.3
2017-Apr-23 07:59N 57°46' E 010°34'20 8.2
2017-Apr-23 05:37N 57°38' E 010°00'1 8.7
2017-Apr-23 05:30N 57°38' E 009°59'6 8.4
2017-Apr-23 04:51N 57°35' E 009°50'3 8.2
2017-Apr-23 04:29N 57°33' E 009°46'4 8.2
2017-Apr-23 03:59N 57°30' E 009°40'4 8.1
2017-Apr-23 03:29N 57°28' E 009°34'4 7.9
2017-Apr-23 03:00N 57°26' E 009°28'4 7.8
2017-Apr-23 02:30N 57°24' E 009°21'4 7.7
2017-Apr-23 02:00N 57°22' E 009°15'4 7.6
2017-Apr-23 01:29N 57°20' E 009°09'271 6.1
2017-Apr-21 05:14N 53°34' E 004°47'2 8.1
2017-Apr-21 04:57N 53°32' E 004°46'4 8.0
2017-Apr-21 04:30N 53°29' E 004°44'4 8.1
2017-Apr-21 04:00N 53°25' E 004°41'4 8.2
2017-Apr-21 03:28N 53°21' E 004°38'27 8.7
2017-Apr-21 00:20N 52°56' E 004°18'3 9.1
2017-Apr-21 00:00N 52°54' E 004°16'8 9.3
2017-Apr-20 23:06N 52°47' E 004°08'2 9.2
2017-Apr-20 22:55N 52°46' E 004°06'4 9.2
2017-Apr-20 22:30N 52°43' E 004°02'93 8.2
2017-Apr-20 11:12N 51°33' E 002°22'2 8.4
2017-Apr-20 10:59N 51°32' E 002°20'4 8.5
2017-Apr-20 10:30N 51°29' E 002°16'5 8.7
2017-Apr-20 09:59N 51°25' E 002°12'4 9.0
2017-Apr-20 09:30N 51°21' E 002°09'4 9.0
2017-Apr-20 09:00N 51°17' E 002°06'4 9.1
2017-Apr-20 08:30N 51°14' E 002°02'5 9.4
2017-Apr-20 08:00N 51°11' E 001°56'5 9.5
2017-Apr-20 07:30N 51°08' E 001°50'5 9.8
2017-Apr-20 07:00N 51°04' E 001°44'510.1
2017-Apr-20 06:30N 51°01' E 001°39'910.7
2017-Apr-20 05:42N 50°54' E 001°29'  

Dump ship's entire track history